createdAt,value
2023-03-10T00:01:21.700Z,5.72
2023-03-10T00:04:26.614Z,5.75
2023-03-10T00:07:31.515Z,6.57
2023-03-10T00:10:36.365Z,5.68
2023-03-10T00:13:41.414Z,6.93
2023-03-10T00:16:45.985Z,6.18
2023-03-10T00:19:50.497Z,6.82
2023-03-10T00:22:55.093Z,6.45
2023-03-10T00:26:01.010Z,5.13
2023-03-10T00:29:06.000Z,5.50
2023-03-10T00:32:10.320Z,5.70
2023-03-10T00:35:14.696Z,6.85
2023-03-10T00:38:19.378Z,5.63
2023-03-10T00:41:30.685Z,5.45
2023-03-10T00:44:35.211Z,4.88
2023-03-10T00:47:39.664Z,5.50
2023-03-10T00:50:44.263Z,5.72
2023-03-10T00:53:49.647Z,4.68
2023-03-10T00:56:54.130Z,4.63
2023-03-10T00:59:58.694Z,4.93
2023-03-10T01:03:03.362Z,4.80
2023-03-10T01:06:08.003Z,4.93
2023-03-10T01:09:13.146Z,5.75
2023-03-10T01:12:17.771Z,4.55
2023-03-10T01:15:22.383Z,5.53
2023-03-10T01:18:26.993Z,5.15
2023-03-10T01:21:36.446Z,5.28
2023-03-10T01:24:41.045Z,5.15
2023-03-10T01:27:47.008Z,4.55
2023-03-10T01:30:51.976Z,4.40
2023-03-10T01:33:57.236Z,4.20
2023-03-10T01:37:02.669Z,3.72
2023-03-10T01:40:09.562Z,4.30
2023-03-10T01:43:19.873Z,3.88
2023-03-10T01:46:45.814Z,3.83
2023-03-10T01:49:57.188Z,4.93
2023-03-10T01:53:01.829Z,3.97
2023-03-10T01:56:07.042Z,4.53
2023-03-10T01:59:12.415Z,4.70
2023-03-10T02:02:18.139Z,4.82
2023-03-10T02:05:23.450Z,4.95
2023-03-10T02:08:35.216Z,4.43
2023-03-10T02:11:39.893Z,4.50
2023-03-10T02:14:47.559Z,4.97
2023-03-10T02:17:53.517Z,6.22
2023-03-10T02:21:12.996Z,6.07
2023-03-10T02:24:48.312Z,5.40
2023-03-10T02:27:53.495Z,5.68
2023-03-10T02:30:58.360Z,5.88
2023-03-10T02:34:06.718Z,5.80
2023-03-10T02:37:38.342Z,6.57
2023-03-10T02:40:47.385Z,5.43
2023-03-10T02:43:57.830Z,5.53
2023-03-10T02:47:05.914Z,4.57
2023-03-10T02:50:13.507Z,5.18
2023-03-10T02:53:22.203Z,6.18
2023-03-10T02:56:28.881Z,5.35
2023-03-10T02:59:35.594Z,5.35
2023-03-10T03:02:40.405Z,5.53
2023-03-10T03:05:45.144Z,4.43
2023-03-10T03:08:49.919Z,5.20
2023-03-10T03:11:57.406Z,5.22
2023-03-10T03:15:02.089Z,5.60
2023-03-10T03:18:06.727Z,5.03
2023-03-10T03:21:17.270Z,5.20
2023-03-10T03:24:23.572Z,4.80
2023-03-10T03:27:28.164Z,5.68
2023-03-10T03:30:33.846Z,4.80
2023-03-10T03:33:38.506Z,5.00
2023-03-10T03:36:44.062Z,5.28
2023-03-10T03:39:51.733Z,5.13
2023-03-10T03:42:57.048Z,5.38
2023-03-10T03:46:02.098Z,5.30
2023-03-10T03:49:07.048Z,5.25
2023-03-10T03:52:12.071Z,5.35
2023-03-10T03:55:19.439Z,5.60
2023-03-10T03:58:27.251Z,6.28
2023-03-10T04:01:32.137Z,5.63
2023-03-10T04:04:38.201Z,6.80
2023-03-10T04:07:43.484Z,6.57
2023-03-10T04:10:55.572Z,6.45
2023-03-10T04:14:03.457Z,7.13
2023-03-10T04:17:09.726Z,5.55
2023-03-10T04:20:15.617Z,6.65
2023-03-10T04:23:24.849Z,6.13
2023-03-10T04:26:30.313Z,6.63
2023-03-10T04:29:35.958Z,7.50
2023-03-10T04:32:41.539Z,7.13
2023-03-10T04:35:48.849Z,6.53
2023-03-10T04:38:54.720Z,6.20
2023-03-10T04:42:05.788Z,6.63
2023-03-10T04:45:11.905Z,6.38
2023-03-10T04:48:17.796Z,6.43
2023-03-10T04:51:22.689Z,4.88
2023-03-10T04:54:29.466Z,4.00
2023-03-10T04:57:34.572Z,3.83
2023-03-10T05:00:53.108Z,3.75
2023-03-10T05:04:06.378Z,3.05
2023-03-10T05:07:12.527Z,3.10
2023-03-10T05:10:22.884Z,3.03
2023-03-10T05:13:29.490Z,3.30
2023-03-10T05:16:35.350Z,3.58
2023-03-10T05:19:39.925Z,3.55
2023-03-10T05:22:45.404Z,5.35
2023-03-10T05:25:50.722Z,4.05
2023-03-10T05:28:57.960Z,4.88
2023-03-10T05:32:15.379Z,5.18
2023-03-10T05:35:21.980Z,5.78
2023-03-10T05:38:26.621Z,4.40
2023-03-10T05:41:33.500Z,5.88
2023-03-10T05:44:39.527Z,5.35
2023-03-10T05:47:48.253Z,5.40
2023-03-10T05:51:10.724Z,3.88
2023-03-10T05:54:16.630Z,4.20
2023-03-10T05:57:21.277Z,3.83
2023-03-10T06:00:26.241Z,3.65
2023-03-10T06:03:38.081Z,4.07
2023-03-10T06:06:42.806Z,3.08
2023-03-10T06:09:47.429Z,3.50
2023-03-10T06:12:52.512Z,3.45
2023-03-10T06:16:01.549Z,2.72
2023-03-10T06:19:06.252Z,3.78
2023-03-10T06:22:11.097Z,3.15
2023-03-10T06:25:15.746Z,3.20
2023-03-10T06:28:20.579Z,5.00
2023-03-10T06:31:25.211Z,4.22
2023-03-10T06:34:30.078Z,3.65
2023-03-10T06:37:34.884Z,4.55
2023-03-10T06:40:39.465Z,5.00
2023-03-10T06:43:44.440Z,4.97
2023-03-10T06:46:48.763Z,5.13
2023-03-10T06:49:54.779Z,4.03
2023-03-10T06:52:59.297Z,4.38
2023-03-10T06:56:07.802Z,4.35
2023-03-10T06:59:12.248Z,5.68
2023-03-10T07:02:17.156Z,4.72
2023-03-10T07:05:23.093Z,4.53
2023-03-10T07:08:29.639Z,4.50
2023-03-10T07:11:34.256Z,5.20
2023-03-10T07:14:38.740Z,5.15
2023-03-10T07:17:44.674Z,4.40
2023-03-10T07:20:49.157Z,6.03
2023-03-10T07:23:54.034Z,5.85
2023-03-10T07:27:02.803Z,5.40
2023-03-10T07:30:09.320Z,5.85
2023-03-10T07:33:13.839Z,5.57
2023-03-10T07:36:19.839Z,5.80
2023-03-10T07:39:24.563Z,5.20
2023-03-10T07:42:29.397Z,6.72
2023-03-10T07:45:35.583Z,6.00
2023-03-10T07:48:40.486Z,5.75
2023-03-10T07:51:45.116Z,5.68
2023-03-10T07:54:49.500Z,6.82
2023-03-10T07:57:56.757Z,6.80
2023-03-10T08:01:01.872Z,6.47
2023-03-10T08:04:06.485Z,6.40
2023-03-10T08:07:10.923Z,5.30
2023-03-10T08:10:15.839Z,4.63
2023-03-10T08:13:20.732Z,5.05
2023-03-10T08:16:25.691Z,4.20
2023-03-10T08:19:30.428Z,4.63
2023-03-10T08:22:34.885Z,5.28
2023-03-10T08:25:39.543Z,5.18
2023-03-10T08:28:44.990Z,3.97
2023-03-10T08:31:50.174Z,4.53
2023-03-10T08:34:54.461Z,3.95
2023-03-10T08:37:58.839Z,3.75
2023-03-10T08:41:25.777Z,4.50
2023-03-10T08:44:30.570Z,3.83
2023-03-10T08:47:34.963Z,3.83
2023-03-10T08:50:39.863Z,3.80
2023-03-10T08:53:47.357Z,3.97
2023-03-10T08:56:52.163Z,4.45
2023-03-10T08:59:56.963Z,3.63
2023-03-10T09:03:01.384Z,3.72
2023-03-10T09:06:07.228Z,3.90
2023-03-10T09:09:12.438Z,3.85
2023-03-10T09:12:16.987Z,4.13
2023-03-10T09:15:22.760Z,4.75
2023-03-10T09:18:27.569Z,4.35
2023-03-10T09:21:33.696Z,4.53
2023-03-10T09:24:38.270Z,4.32
2023-03-10T09:27:44.247Z,4.57
2023-03-10T09:30:51.207Z,4.07
2023-03-10T09:33:55.743Z,5.05
2023-03-10T09:37:00.165Z,3.80
2023-03-10T09:40:09.723Z,4.70
2023-03-10T09:43:22.313Z,6.18
2023-03-10T09:46:42.200Z,5.53
2023-03-10T09:50:02.400Z,4.93
2023-03-10T09:53:09.439Z,4.75
2023-03-10T09:56:23.228Z,4.32
2023-03-10T09:59:42.115Z,3.63
2023-03-10T10:02:49.822Z,3.35
2023-03-10T10:05:56.702Z,4.32
2023-03-10T10:09:14.935Z,3.45
2023-03-10T10:12:24.035Z,3.40
2023-03-10T10:15:34.940Z,3.70
2023-03-10T10:18:47.794Z,3.15
2023-03-10T10:22:13.707Z,3.67
2023-03-10T10:25:23.758Z,2.88
2023-03-10T10:28:44.880Z,4.18
2023-03-10T10:32:14.785Z,3.38
2023-03-10T10:35:25.685Z,3.78
2023-03-10T10:38:33.048Z,2.72
2023-03-10T10:41:37.291Z,3.38
2023-03-10T10:44:44.506Z,3.55
2023-03-10T10:47:53.016Z,2.90
2023-03-10T10:50:57.976Z,3.22
2023-03-10T10:54:29.027Z,3.67
2023-03-10T10:57:38.755Z,3.40
2023-03-10T11:00:43.158Z,3.40
2023-03-10T11:03:49.131Z,5.68
2023-03-10T11:07:07.980Z,3.95
2023-03-10T11:10:25.530Z,4.13
2023-03-10T11:14:23.360Z,4.68
2023-03-10T11:18:00.854Z,5.03
2023-03-10T11:21:41.251Z,4.97
2023-03-10T11:25:40.222Z,5.28
2023-03-10T11:29:34.429Z,5.47
2023-03-10T11:32:48.615Z,4.38
2023-03-10T11:36:55.443Z,4.45
2023-03-10T11:40:43.811Z,5.32
2023-03-10T11:44:16.824Z,4.70
2023-03-10T11:47:28.038Z,4.22
2023-03-10T11:50:54.188Z,5.68
2023-03-10T11:54:11.578Z,5.25
2023-03-10T11:57:20.015Z,4.38
2023-03-10T12:00:39.784Z,4.72
2023-03-10T12:03:55.546Z,5.57
2023-03-10T12:07:19.872Z,4.00
2023-03-10T12:13:48.956Z,3.92
2023-03-10T12:16:55.372Z,3.58
2023-03-10T12:20:14.740Z,3.60
2023-03-10T12:23:22.619Z,3.10
2023-03-10T12:26:39.665Z,4.18
2023-03-10T12:29:44.646Z,4.72
2023-03-10T12:32:49.131Z,3.70
2023-03-10T12:36:05.337Z,4.18
2023-03-10T12:39:28.045Z,4.32
2023-03-10T12:42:34.529Z,4.10
2023-03-10T12:45:44.597Z,3.90
2023-03-10T12:49:51.715Z,4.32
2023-03-10T12:53:28.436Z,4.05
2023-03-10T12:56:39.951Z,3.70
2023-03-10T12:59:49.808Z,3.90
2023-03-10T13:03:10.045Z,4.00
2023-03-10T13:06:14.623Z,4.85
2023-03-10T13:09:39.091Z,5.15
2023-03-10T13:12:51.394Z,4.95
2023-03-10T13:16:06.852Z,6.18
2023-03-10T13:19:22.031Z,7.43
2023-03-10T13:22:27.688Z,7.50
2023-03-10T13:25:36.658Z,9.32
2023-03-10T13:28:53.496Z,8.70
2023-03-10T13:31:58.292Z,9.38
2023-03-10T13:35:22.292Z,9.88
2023-03-10T13:38:26.805Z,7.80
2023-03-10T13:41:37.466Z,7.72
2023-03-10T13:44:44.411Z,8.18
2023-03-10T13:47:49.582Z,7.45
2023-03-10T13:51:22.398Z,6.60
2023-03-10T13:54:31.209Z,5.85
2023-03-10T13:57:37.112Z,6.60
2023-03-10T14:00:47.401Z,5.85
2023-03-10T14:04:37.739Z,6.35
2023-03-10T14:08:00.098Z,5.70
2023-03-10T14:11:39.848Z,5.32
2023-03-10T14:14:44.583Z,6.18
2023-03-10T14:18:06.859Z,6.13
2023-03-10T14:21:33.197Z,6.35
2023-03-10T14:24:37.365Z,7.30
2023-03-10T14:27:46.021Z,8.20
2023-03-10T14:30:50.648Z,6.97
2023-03-10T14:33:55.408Z,8.35
2023-03-10T14:37:00.179Z,7.00
2023-03-10T14:40:06.503Z,7.03
2023-03-10T14:43:24.890Z,5.60
2023-03-10T14:46:30.268Z,5.78
2023-03-10T14:49:35.146Z,5.80
2023-03-10T14:52:40.047Z,6.40
2023-03-10T14:55:48.193Z,6.95
2023-03-10T14:58:55.144Z,6.60
2023-03-10T15:02:29.202Z,5.85
2023-03-10T15:05:47.306Z,5.67
2023-03-10T15:08:52.905Z,7.75
2023-03-10T15:11:58.608Z,7.20
2023-03-10T15:15:03.516Z,6.00
2023-03-10T15:18:12.802Z,6.38
2023-03-10T15:21:17.648Z,7.53
2023-03-10T15:24:22.235Z,6.40
2023-03-10T15:27:26.925Z,6.22
2023-03-10T15:30:36.014Z,6.40
2023-03-10T15:33:40.544Z,7.03
2023-03-10T15:36:45.358Z,6.80
2023-03-10T15:39:49.809Z,6.47
2023-03-10T15:42:57.357Z,7.22
2023-03-10T15:46:09.588Z,7.90
2023-03-10T15:49:13.892Z,9.15
2023-03-10T15:52:18.530Z,8.05
2023-03-10T15:55:24.621Z,8.15
2023-03-10T15:58:29.607Z,7.45
2023-03-10T16:01:34.992Z,5.35
2023-03-10T16:04:39.744Z,4.95
2023-03-10T16:07:44.589Z,6.32
2023-03-10T16:10:54.353Z,4.80
2023-03-10T16:13:59.037Z,4.75
2023-03-10T16:17:03.455Z,5.82
2023-03-10T16:20:12.293Z,5.68
2023-03-10T16:23:17.116Z,4.50
2023-03-10T16:26:24.213Z,6.15
2023-03-10T16:29:28.925Z,6.47
2023-03-10T16:32:33.959Z,6.07
2023-03-10T16:35:39.039Z,6.40
2023-03-10T16:38:43.504Z,5.22
2023-03-10T16:41:47.748Z,5.88
2023-03-10T16:44:56.557Z,5.45
2023-03-10T16:48:01.602Z,7.30
2023-03-10T16:51:20.654Z,5.53
2023-03-10T16:54:25.103Z,5.35
2023-03-10T16:57:30.120Z,4.80
2023-03-10T17:00:37.535Z,6.13
2023-03-10T17:03:41.927Z,6.00
2023-03-10T17:06:47.867Z,5.35
2023-03-10T17:09:52.494Z,7.00
2023-03-10T17:12:57.395Z,6.00
2023-03-10T17:16:01.884Z,6.43
2023-03-10T17:19:11.365Z,6.53
2023-03-10T17:22:15.607Z,10.20
2023-03-10T17:25:20.391Z,6.28
2023-03-10T17:28:25.005Z,7.15
2023-03-10T17:31:30.088Z,5.30
2023-03-10T17:34:34.787Z,7.03
2023-03-10T17:37:39.410Z,6.25
2023-03-10T17:40:43.969Z,6.05
2023-03-10T17:43:49.344Z,7.15
2023-03-10T17:46:55.911Z,9.20
2023-03-10T17:50:02.198Z,7.50
2023-03-10T17:53:06.470Z,7.28
2023-03-10T17:56:12.295Z,7.55
2023-03-10T17:59:17.780Z,7.10
2023-03-10T18:02:22.266Z,4.80
2023-03-10T18:05:27.014Z,4.85
2023-03-10T18:08:32.009Z,3.70
2023-03-10T18:11:36.780Z,4.05
2023-03-10T18:14:41.412Z,2.38
2023-03-10T18:17:46.324Z,2.75
2023-03-10T18:20:51.527Z,2.42
2023-03-10T18:23:56.778Z,1.33
2023-03-10T18:27:01.818Z,1.63
2023-03-10T18:30:08.122Z,1.83
2023-03-10T18:33:13.868Z,1.38
2023-03-10T18:36:20.639Z,2.08
2023-03-10T18:39:25.418Z,1.05
2023-03-10T18:42:29.778Z,1.67
2023-03-10T18:45:34.886Z,1.30
2023-03-10T18:48:39.636Z,1.08
2023-03-10T18:51:44.245Z,1.20
2023-03-10T18:54:49.322Z,1.38
2023-03-10T18:57:53.720Z,3.65
2023-03-10T19:00:59.869Z,4.40
2023-03-10T19:04:04.367Z,2.72
2023-03-10T19:07:09.075Z,2.08
2023-03-10T19:10:17.233Z,2.63
2023-03-10T19:13:21.693Z,2.50
2023-03-10T19:16:26.495Z,1.65
2023-03-10T19:19:31.369Z,2.00
2023-03-10T19:22:36.360Z,1.25
2023-03-10T19:25:41.035Z,2.67
2023-03-10T19:28:45.548Z,2.35
2023-03-10T19:31:50.184Z,1.35
2023-03-10T19:34:54.792Z,1.70
2023-03-10T19:38:00.469Z,1.60
2023-03-10T19:41:06.406Z,1.52
2023-03-10T19:44:11.085Z,2.38
2023-03-10T19:47:18.431Z,1.73
2023-03-10T19:50:23.009Z,2.38
2023-03-10T19:53:29.680Z,3.00
2023-03-10T19:56:34.548Z,2.78
2023-03-10T19:59:43.143Z,2.47
2023-03-10T20:02:47.889Z,2.00
2023-03-10T20:05:52.639Z,1.80
2023-03-10T20:08:57.395Z,2.10
2023-03-10T20:12:02.546Z,1.63
2023-03-10T20:15:08.203Z,1.25
2023-03-10T20:18:12.795Z,1.73
2023-03-10T20:21:17.751Z,1.95
2023-03-10T20:24:22.545Z,2.10
2023-03-10T20:27:27.472Z,1.95
2023-03-10T20:30:32.584Z,1.33
2023-03-10T20:33:37.506Z,2.90
2023-03-10T20:36:42.372Z,8.07
2023-03-10T20:39:46.921Z,10.65
2023-03-10T20:42:57.310Z,8.13
2023-03-10T20:46:02.063Z,4.50
2023-03-10T20:49:07.188Z,6.78
2023-03-10T20:52:12.248Z,17.40
2023-03-10T20:55:22.061Z,10.68
2023-03-10T20:58:27.464Z,7.07
2023-03-10T21:01:32.147Z,3.97
2023-03-10T21:04:37.035Z,8.45
2023-03-10T21:07:42.506Z,11.77
2023-03-10T21:10:49.252Z,23.55
2023-03-10T21:13:53.963Z,24.90
2023-03-10T21:16:59.942Z,32.88
2023-03-10T21:20:08.099Z,23.30
2023-03-10T21:23:13.000Z,37.85
2023-03-10T21:26:21.435Z,23.75
2023-03-10T21:29:26.132Z,28.17
2023-03-10T21:32:33.128Z,14.27
2023-03-10T21:35:40.366Z,21.77
2023-03-10T21:38:48.712Z,15.35
2023-03-10T21:41:53.768Z,12.57
2023-03-10T21:44:58.419Z,27.45
2023-03-10T21:48:04.352Z,22.55
2023-03-10T21:51:15.565Z,15.70
2023-03-10T21:54:20.344Z,12.65
2023-03-10T21:57:25.290Z,11.38
2023-03-10T22:00:30.015Z,20.25
2023-03-10T22:03:35.419Z,26.13
2023-03-10T22:06:40.244Z,13.82
2023-03-10T22:09:45.416Z,12.77
2023-03-10T22:12:50.212Z,9.52
2023-03-10T22:15:55.268Z,6.85
2023-03-10T22:19:00.034Z,7.00
2023-03-10T22:22:05.309Z,5.53
2023-03-10T22:25:10.785Z,4.13
2023-03-10T22:28:15.779Z,1.92
2023-03-10T22:31:22.206Z,2.47
2023-03-10T22:34:27.084Z,1.58
2023-03-10T22:37:31.547Z,2.60
2023-03-10T22:40:36.349Z,1.08
2023-03-10T22:43:41.722Z,2.28
2023-03-10T22:46:47.576Z,1.55
2023-03-10T22:49:52.103Z,2.88
2023-03-10T22:52:56.922Z,1.88
2023-03-10T22:56:01.559Z,1.85
2023-03-10T22:59:06.538Z,1.67
2023-03-10T23:02:11.448Z,1.35
2023-03-10T23:05:17.137Z,0.70
2023-03-10T23:08:21.649Z,0.82
2023-03-10T23:11:26.408Z,1.25
2023-03-10T23:14:30.832Z,1.00
2023-03-10T23:17:35.266Z,1.77
2023-03-10T23:20:45.243Z,1.15
2023-03-10T23:23:49.660Z,1.00
2023-03-10T23:26:53.956Z,1.00
2023-03-10T23:29:58.791Z,1.30
2023-03-10T23:33:05.018Z,1.63
2023-03-10T23:36:11.758Z,1.42
2023-03-10T23:39:16.409Z,1.30
2023-03-10T23:42:21.097Z,1.20
2023-03-10T23:45:29.141Z,1.38
2023-03-10T23:48:34.988Z,3.15
2023-03-10T23:51:39.744Z,2.90
2023-03-10T23:54:44.287Z,2.08
2023-03-10T23:57:49.802Z,1.70
